createdAt,value
2018-02-21T00:00:15.959Z,1018.45
2018-02-21T00:01:15.959Z,1018.45
2018-02-21T00:02:15.899Z,1018.50
2018-02-21T00:03:15.861Z,1018.50
2018-02-21T00:04:15.832Z,1018.47
2018-02-21T00:05:15.802Z,1018.51
2018-02-21T00:06:15.764Z,1018.48
2018-02-21T00:07:15.737Z,1018.43
2018-02-21T00:08:15.707Z,1018.39
2018-02-21T00:09:15.668Z,1018.35
2018-02-21T00:10:15.641Z,1018.33
2018-02-21T00:11:15.617Z,1018.27
2018-02-21T00:12:15.572Z,1018.25
2018-02-21T00:13:15.557Z,1018.19
2018-02-21T00:14:15.514Z,1018.21
2018-02-21T00:15:15.470Z,1018.20
2018-02-21T00:16:15.437Z,1018.20
2018-02-21T00:17:15.398Z,1018.24
2018-02-21T00:18:15.380Z,1018.28
2018-02-21T00:19:15.344Z,1018.30
2018-02-21T00:20:15.304Z,1018.33
2018-02-21T00:21:15.276Z,1018.37
2018-02-21T00:22:15.241Z,1018.42
2018-02-21T00:23:15.212Z,1018.44
2018-02-21T00:24:15.175Z,1018.48
2018-02-21T00:25:15.136Z,1018.44
2018-02-21T00:26:15.116Z,1018.45
2018-02-21T00:27:15.080Z,1018.40
2018-02-21T00:28:15.052Z,1018.37
2018-02-21T00:29:15.018Z,1018.34
2018-02-21T00:30:14.983Z,1018.32
2018-02-21T00:31:14.943Z,1018.27
2018-02-21T00:32:14.918Z,1018.19
2018-02-21T00:33:14.900Z,1018.22
2018-02-21T00:34:14.857Z,1018.22
2018-02-21T00:35:14.820Z,1018.20
2018-02-21T00:36:14.808Z,1018.20
2018-02-21T00:37:14.758Z,1018.19
2018-02-21T00:38:14.727Z,1018.20
2018-02-21T00:39:14.676Z,1018.25
2018-02-21T00:40:14.653Z,1018.25
2018-02-21T00:41:14.612Z,1018.30
2018-02-21T00:42:14.581Z,1018.29
2018-02-21T00:43:14.562Z,1018.33
2018-02-21T00:44:14.527Z,1018.32
2018-02-21T00:45:14.487Z,1018.39
2018-02-21T00:46:14.448Z,1018.46
2018-02-21T00:47:14.412Z,1018.42
2018-02-21T00:48:14.399Z,1018.48
2018-02-21T00:49:14.351Z,1018.46
2018-02-21T00:50:14.322Z,1018.46
2018-02-21T00:51:14.284Z,1018.48
2018-02-21T00:52:14.257Z,1018.47
2018-02-21T00:53:14.241Z,1018.46
2018-02-21T00:54:14.190Z,1018.43
2018-02-21T00:55:14.149Z,1018.38
2018-02-21T00:56:14.124Z,1018.38
2018-02-21T00:57:14.089Z,1018.37
2018-02-21T00:58:14.063Z,1018.38
2018-02-21T00:59:14.030Z,1018.34
2018-02-21T01:00:14.011Z,1018.38
2018-02-21T01:01:13.967Z,1018.32
2018-02-21T01:02:13.930Z,1018.35
2018-02-21T01:03:13.889Z,1018.37
2018-02-21T01:04:13.863Z,1018.40
2018-02-21T01:05:13.831Z,1018.42
2018-02-21T01:06:13.802Z,1018.43
2018-02-21T01:07:13.765Z,1018.43
2018-02-21T01:08:13.772Z,1018.45
2018-02-21T01:09:13.702Z,1018.47
2018-02-21T01:10:13.658Z,1018.44
2018-02-21T01:11:13.661Z,1018.45
2018-02-21T01:12:13.598Z,1018.45
2018-02-21T01:13:13.572Z,1018.47
2018-02-21T01:14:13.530Z,1018.41
2018-02-21T01:15:13.499Z,1018.41
2018-02-21T01:16:13.485Z,1018.37
2018-02-21T01:17:13.440Z,1018.36
2018-02-21T01:18:13.401Z,1018.33
2018-02-21T01:19:13.386Z,1018.31
2018-02-21T01:20:13.342Z,1018.28
2018-02-21T01:21:13.317Z,1018.21
2018-02-21T01:22:13.275Z,1018.30
2018-02-21T01:23:13.255Z,1018.21
2018-02-21T01:24:13.227Z,1018.25
2018-02-21T01:25:13.176Z,1018.23
2018-02-21T01:26:13.152Z,1018.23
2018-02-21T01:27:13.102Z,1018.23
2018-02-21T01:28:13.088Z,1018.22
2018-02-21T01:29:13.040Z,1018.25
2018-02-21T01:30:13.004Z,1018.22
2018-02-21T01:31:12.985Z,1018.24
2018-02-21T01:32:12.986Z,1018.23
2018-02-21T01:33:12.913Z,1018.21
2018-02-21T01:34:12.880Z,1018.26
2018-02-21T01:35:12.847Z,1018.24
2018-02-21T01:36:12.824Z,1018.23
2018-02-21T01:37:12.780Z,1018.24
2018-02-21T01:38:12.742Z,1018.21
2018-02-21T01:39:12.712Z,1018.18
2018-02-21T01:40:12.713Z,1018.22
2018-02-21T01:41:12.646Z,1018.18
2018-02-21T01:42:12.615Z,1018.14
2018-02-21T01:43:12.589Z,1018.16
2018-02-21T01:44:12.548Z,1018.15
2018-02-21T01:45:12.532Z,1018.17
2018-02-21T01:46:12.498Z,1018.26
2018-02-21T01:47:12.448Z,1018.29
2018-02-21T01:48:12.421Z,1018.36
2018-02-21T01:49:12.384Z,1018.40
2018-02-21T01:50:12.352Z,1018.49
2018-02-21T01:51:12.341Z,1018.48
2018-02-21T01:52:12.306Z,1018.48
2018-02-21T01:53:12.282Z,1018.47
2018-02-21T01:54:12.230Z,1018.42
2018-02-21T01:55:12.203Z,1018.35
2018-02-21T01:56:12.158Z,1018.35
2018-02-21T01:57:12.126Z,1018.32
2018-02-21T01:58:12.102Z,1018.31
2018-02-21T01:59:12.055Z,1018.28
2018-02-21T02:00:12.038Z,1018.23
2018-02-21T02:01:11.993Z,1018.24
2018-02-21T02:02:11.973Z,1018.21
2018-02-21T02:03:11.933Z,1018.27
2018-02-21T02:04:11.899Z,1018.29
2018-02-21T02:05:11.864Z,1018.24
2018-02-21T02:06:11.842Z,1018.27
2018-02-21T02:07:11.803Z,1018.30
2018-02-21T02:08:11.767Z,1018.28
2018-02-21T02:09:11.734Z,1018.30
2018-02-21T02:10:11.692Z,1018.29
2018-02-21T02:11:11.664Z,1018.37
2018-02-21T02:12:11.641Z,1018.38
2018-02-21T02:13:11.596Z,1018.37
2018-02-21T02:14:11.566Z,1018.34
2018-02-21T02:15:11.527Z,1018.36
2018-02-21T02:16:11.506Z,1018.36
2018-02-21T02:17:11.464Z,1018.34
2018-02-21T02:18:11.459Z,1018.34
2018-02-21T02:19:11.398Z,1018.37
2018-02-21T02:20:11.374Z,1018.41
2018-02-21T02:21:11.336Z,1018.40
2018-02-21T02:22:11.308Z,1018.43
2018-02-21T02:23:11.277Z,1018.47
2018-02-21T02:24:11.237Z,1018.46
2018-02-21T02:25:11.200Z,1018.49
2018-02-21T02:26:11.186Z,1018.52
2018-02-21T02:27:11.161Z,1018.53
2018-02-21T02:28:11.101Z,1018.53
2018-02-21T02:29:11.097Z,1018.57
2018-02-21T02:30:11.033Z,1018.55
2018-02-21T02:31:11.012Z,1018.54
2018-02-21T02:32:10.986Z,1018.57
2018-02-21T02:33:10.940Z,1018.54
2018-02-21T02:34:10.913Z,1018.55
2018-02-21T02:35:10.886Z,1018.59
2018-02-21T02:36:10.857Z,1018.58
2018-02-21T02:37:10.815Z,1018.64
2018-02-21T02:38:10.776Z,1018.65
2018-02-21T02:39:10.746Z,1018.69
2018-02-21T02:40:10.711Z,1018.72
2018-02-21T02:41:10.676Z,1018.78
2018-02-21T02:42:10.642Z,1018.79
2018-02-21T02:43:10.608Z,1018.80
2018-02-21T02:44:10.583Z,1018.87
2018-02-21T02:45:10.566Z,1018.94
2018-02-21T02:46:10.509Z,1018.98
2018-02-21T02:47:10.481Z,1019.01
2018-02-21T02:48:10.459Z,1019.05
2018-02-21T02:49:10.432Z,1019.06
2018-02-21T02:50:10.389Z,1019.00
2018-02-21T02:51:10.355Z,1019.04
2018-02-21T02:52:10.318Z,1019.00
2018-02-21T02:53:10.286Z,1019.05
2018-02-21T02:54:10.248Z,1018.99
2018-02-21T02:55:10.212Z,1018.99
2018-02-21T02:56:10.189Z,1018.94
2018-02-21T02:57:10.154Z,1018.97
2018-02-21T02:58:10.118Z,1018.95
2018-02-21T02:59:10.088Z,1018.93
2018-02-21T03:00:10.058Z,1018.92
2018-02-21T03:01:10.014Z,1019.00
2018-02-21T03:02:09.980Z,1018.99
2018-02-21T03:03:09.956Z,1018.99
2018-02-21T03:04:09.918Z,1019.03
2018-02-21T03:05:09.884Z,1019.03
2018-02-21T03:06:09.856Z,1019.06
2018-02-21T03:07:09.820Z,1019.07
2018-02-21T03:08:09.793Z,1019.06
2018-02-21T03:09:09.771Z,1019.06
2018-02-21T03:10:09.708Z,1019.06
2018-02-21T03:11:09.686Z,1019.08
2018-02-21T03:12:09.675Z,1019.04
2018-02-21T03:13:09.615Z,1019.03
2018-02-21T03:14:09.595Z,1019.04
2018-02-21T03:15:09.551Z,1019.00
2018-02-21T03:16:09.519Z,1018.99
2018-02-21T03:17:09.479Z,1018.99
2018-02-21T03:18:09.453Z,1018.98
2018-02-21T03:19:09.408Z,1019.02
2018-02-21T03:20:09.387Z,1019.03
2018-02-21T03:21:09.348Z,1019.05
2018-02-21T03:22:09.315Z,1019.06
2018-02-21T03:23:09.275Z,1019.10
2018-02-21T03:24:09.258Z,1019.06
2018-02-21T03:25:09.227Z,1019.11
2018-02-21T03:26:09.196Z,1019.12
2018-02-21T03:27:09.143Z,1019.07
2018-02-21T03:28:09.116Z,1019.07
2018-02-21T03:29:09.078Z,1019.06
2018-02-21T03:30:09.056Z,1019.04
2018-02-21T03:31:09.019Z,1019.01
2018-02-21T03:32:08.992Z,1018.97
2018-02-21T03:33:08.957Z,1018.96
2018-02-21T03:34:08.930Z,1018.94
2018-02-21T03:35:08.885Z,1018.98
2018-02-21T03:36:08.852Z,1018.98
2018-02-21T03:37:08.810Z,1018.98
2018-02-21T03:38:08.796Z,1018.98
2018-02-21T03:39:08.757Z,1019.01
2018-02-21T03:40:08.722Z,1019.00
2018-02-21T03:41:08.686Z,1019.01
2018-02-21T03:42:08.651Z,1019.04
2018-02-21T03:43:08.614Z,1019.03
2018-02-21T03:44:08.575Z,1019.02
2018-02-21T03:45:08.548Z,1019.03
2018-02-21T03:46:08.510Z,1019.00
2018-02-21T03:47:08.480Z,1019.06
2018-02-21T03:48:08.454Z,1019.05
2018-02-21T03:49:08.407Z,1019.06
2018-02-21T03:50:08.389Z,1019.06
2018-02-21T03:51:08.353Z,1019.09
2018-02-21T03:52:08.345Z,1019.07
2018-02-21T03:53:08.288Z,1019.13
2018-02-21T03:54:08.250Z,1019.15
2018-02-21T03:55:08.217Z,1019.15
2018-02-21T03:56:08.184Z,1019.10
2018-02-21T03:57:08.152Z,1019.17
2018-02-21T03:58:08.118Z,1019.20
2018-02-21T03:59:08.087Z,1019.20
2018-02-21T04:00:08.044Z,1019.18
2018-02-21T04:01:08.019Z,1019.18
2018-02-21T04:02:07.990Z,1019.15
2018-02-21T04:03:07.955Z,1019.09
2018-02-21T04:04:07.919Z,1019.16
2018-02-21T04:05:07.883Z,1019.15
2018-02-21T04:06:07.856Z,1019.14
2018-02-21T04:07:07.822Z,1019.18
2018-02-21T04:08:07.790Z,1019.20
2018-02-21T04:09:07.748Z,1019.18
2018-02-21T04:10:07.731Z,1019.19
2018-02-21T04:11:07.681Z,1019.18
2018-02-21T04:12:07.650Z,1019.12
2018-02-21T04:13:07.620Z,1019.15
2018-02-21T04:14:07.605Z,1019.13
2018-02-21T04:15:07.566Z,1019.11
2018-02-21T04:16:07.525Z,1019.12
2018-02-21T04:17:07.480Z,1019.14
2018-02-21T04:18:07.481Z,1019.12
2018-02-21T04:19:07.423Z,1019.14
2018-02-21T04:20:07.391Z,1019.08
2018-02-21T04:21:07.354Z,1019.11
2018-02-21T04:22:07.315Z,1019.10
2018-02-21T04:23:07.285Z,1019.15
2018-02-21T04:24:07.251Z,1019.12
2018-02-21T04:25:09.127Z,1019.17
2018-02-21T04:26:09.289Z,1019.21
2018-02-21T04:27:10.281Z,1019.18
2018-02-21T04:28:07.129Z,1019.15
2018-02-21T04:29:07.087Z,1019.15
2018-02-21T04:30:07.049Z,1019.16
2018-02-21T04:31:07.016Z,1019.14
2018-02-21T04:32:07.010Z,1019.13
2018-02-21T04:33:06.965Z,1019.14
2018-02-21T04:34:06.951Z,1019.14
2018-02-21T04:35:06.895Z,1019.09
2018-02-21T04:36:06.848Z,1019.14
2018-02-21T04:37:06.814Z,1019.09
2018-02-21T04:38:06.784Z,1019.09
2018-02-21T04:39:06.757Z,1019.06
2018-02-21T04:40:06.727Z,1019.04
2018-02-21T04:41:06.692Z,1019.05
2018-02-21T04:42:06.654Z,1019.11
2018-02-21T04:43:06.636Z,1019.03
2018-02-21T04:44:06.588Z,1019.06
2018-02-21T04:45:06.566Z,1019.02
2018-02-21T04:46:06.521Z,1019.02
2018-02-21T04:47:06.495Z,1019.00
2018-02-21T04:48:06.457Z,1018.98
2018-02-21T04:49:06.425Z,1018.93
2018-02-21T04:50:06.398Z,1018.92
2018-02-21T04:51:06.358Z,1018.93
2018-02-21T04:52:06.319Z,1018.94
2018-02-21T04:53:06.290Z,1018.93
2018-02-21T04:54:06.257Z,1018.95
2018-02-21T04:55:06.235Z,1018.98
2018-02-21T04:56:06.212Z,1018.99
2018-02-21T04:57:06.162Z,1019.03
2018-02-21T04:58:06.122Z,1019.03
2018-02-21T04:59:06.094Z,1019.06
2018-02-21T05:00:06.094Z,1019.03
2018-02-21T05:01:06.032Z,1019.00
2018-02-21T05:02:05.992Z,1019.00
2018-02-21T05:03:05.964Z,1018.96
2018-02-21T05:04:05.925Z,1018.94
2018-02-21T05:05:05.895Z,1018.92
2018-02-21T05:06:05.867Z,1018.93
2018-02-21T05:07:05.833Z,1018.95
2018-02-21T05:08:05.793Z,1018.92
2018-02-21T05:09:05.765Z,1018.96
2018-02-21T05:10:05.725Z,1018.95
2018-02-21T05:11:05.694Z,1018.95
2018-02-21T05:12:05.672Z,1018.95
2018-02-21T05:13:05.634Z,1018.93
2018-02-21T05:14:05.602Z,1018.92
2018-02-21T05:15:05.588Z,1018.96
2018-02-21T05:16:05.542Z,1018.95
2018-02-21T05:17:05.510Z,1018.98
2018-02-21T05:18:05.464Z,1018.98
2018-02-21T05:19:05.431Z,1019.02
2018-02-21T05:20:05.413Z,1019.01
2018-02-21T05:21:05.369Z,1019.04
2018-02-21T05:22:05.329Z,1019.04
2018-02-21T05:23:05.304Z,1019.00
2018-02-21T05:24:05.281Z,1019.02
2018-02-21T05:25:05.236Z,1018.99
2018-02-21T05:26:05.194Z,1018.99
2018-02-21T05:27:05.167Z,1018.99
2018-02-21T05:28:05.133Z,1018.98
2018-02-21T05:29:05.099Z,1018.94
2018-02-21T05:30:05.075Z,1018.99
2018-02-21T05:31:05.039Z,1019.00
2018-02-21T05:32:04.995Z,1018.98
2018-02-21T05:33:04.992Z,1018.95
2018-02-21T05:34:04.933Z,1018.97
2018-02-21T05:35:04.915Z,1019.04
2018-02-21T05:36:04.859Z,1019.01
2018-02-21T05:37:04.914Z,1018.99
2018-02-21T05:38:04.823Z,1019.02
2018-02-21T05:39:04.768Z,1019.07
2018-02-21T05:40:04.748Z,1019.09
2018-02-21T05:41:04.731Z,1019.13
2018-02-21T05:42:04.670Z,1019.17
2018-02-21T05:43:04.655Z,1019.18
2018-02-21T05:44:04.631Z,1019.28
2018-02-21T05:45:04.574Z,1019.25
2018-02-21T05:46:04.542Z,1019.29
2018-02-21T05:47:04.513Z,1019.31
2018-02-21T05:48:04.478Z,1019.31
2018-02-21T05:49:04.440Z,1019.30
2018-02-21T05:50:04.403Z,1019.34
2018-02-21T05:51:04.364Z,1019.33
2018-02-21T05:52:04.334Z,1019.34
2018-02-21T05:53:04.322Z,1019.37
2018-02-21T05:54:04.265Z,1019.37
2018-02-21T05:55:04.239Z,1019.42
2018-02-21T05:56:04.208Z,1019.45
2018-02-21T05:57:04.181Z,1019.43
2018-02-21T05:58:04.136Z,1019.41
2018-02-21T05:59:04.103Z,1019.37
2018-02-21T06:00:04.099Z,1019.35
2018-02-21T06:01:04.070Z,1019.35
2018-02-21T06:02:04.019Z,1019.34
2018-02-21T06:03:03.980Z,1019.37
2018-02-21T06:04:04.830Z,1019.40
2018-02-21T06:05:03.905Z,1019.44
2018-02-21T06:06:03.862Z,1019.47
2018-02-21T06:07:03.839Z,1019.50
2018-02-21T06:08:03.798Z,1019.57
2018-02-21T06:09:03.768Z,1019.61
2018-02-21T06:10:03.734Z,1019.62
2018-02-21T06:11:03.693Z,1019.63
2018-02-21T06:12:03.664Z,1019.62
2018-02-21T06:13:03.636Z,1019.62
2018-02-21T06:14:03.613Z,1019.63
2018-02-21T06:15:03.571Z,1019.62
2018-02-21T06:16:03.562Z,1019.60
2018-02-21T06:17:03.495Z,1019.66
2018-02-21T06:18:03.465Z,1019.71
2018-02-21T06:19:03.446Z,1019.73
2018-02-21T06:20:03.407Z,1019.74
2018-02-21T06:21:03.361Z,1019.74
2018-02-21T06:22:03.329Z,1019.76
2018-02-21T06:23:03.305Z,1019.82
2018-02-21T06:24:03.257Z,1019.80
2018-02-21T06:25:03.271Z,1019.84
2018-02-21T06:26:03.205Z,1019.84
2018-02-21T06:27:03.157Z,1019.82
2018-02-21T06:28:03.118Z,1019.84
2018-02-21T06:29:03.112Z,1019.85
2018-02-21T06:30:03.056Z,1019.84
2018-02-21T06:31:03.022Z,1019.84
2018-02-21T06:32:03.006Z,1019.87
2018-02-21T06:33:02.955Z,1019.85
2018-02-21T06:34:02.936Z,1019.83
2018-02-21T06:35:02.901Z,1019.84
2018-02-21T06:36:02.861Z,1019.84
2018-02-21T06:37:02.829Z,1019.80
2018-02-21T06:38:02.786Z,1019.84
2018-02-21T06:39:02.760Z,1019.81
2018-02-21T06:40:02.717Z,1019.76
2018-02-21T06:41:02.700Z,1019.75
2018-02-21T06:42:02.665Z,1019.73
2018-02-21T06:43:02.615Z,1019.75
2018-02-21T06:44:02.599Z,1019.69
2018-02-21T06:45:02.553Z,1019.68
2018-02-21T06:46:02.528Z,1019.69
2018-02-21T06:47:02.483Z,1019.66
2018-02-21T06:48:02.480Z,1019.66
2018-02-21T06:49:02.467Z,1019.67
2018-02-21T06:50:02.385Z,1019.64
2018-02-21T06:51:02.347Z,1019.60
2018-02-21T06:52:02.317Z,1019.60
2018-02-21T06:53:02.278Z,1019.52
2018-02-21T06:54:02.251Z,1019.56
2018-02-21T06:55:02.216Z,1019.56
2018-02-21T06:56:02.176Z,1019.52
2018-02-21T06:57:02.167Z,1019.50
2018-02-21T06:58:02.113Z,1019.51
2018-02-21T06:59:02.092Z,1019.54
2018-02-21T07:00:02.048Z,1019.57
2018-02-21T07:01:02.027Z,1019.61
2018-02-21T07:02:01.987Z,1019.65
2018-02-21T07:03:01.969Z,1019.66
2018-02-21T07:04:01.916Z,1019.66
2018-02-21T07:05:01.879Z,1019.68
2018-02-21T07:06:01.860Z,1019.67
2018-02-21T07:07:01.837Z,1019.66
2018-02-21T07:08:01.776Z,1019.67
2018-02-21T07:09:01.748Z,1019.63
2018-02-21T07:10:01.706Z,1019.63
2018-02-21T07:11:01.672Z,1019.65
2018-02-21T07:12:01.649Z,1019.60
2018-02-21T07:13:01.609Z,1019.64
2018-02-21T07:14:01.575Z,1019.67
2018-02-21T07:15:01.588Z,1019.72
2018-02-21T07:16:01.514Z,1019.73
2018-02-21T07:17:01.498Z,1019.72
2018-02-21T07:18:01.454Z,1019.66
2018-02-21T07:19:01.413Z,1019.66
2018-02-21T07:20:01.369Z,1019.65
2018-02-21T07:21:01.342Z,1019.60
2018-02-21T07:22:01.316Z,1019.60
2018-02-21T07:23:01.272Z,1019.59
2018-02-21T07:24:01.244Z,1019.60
2018-02-21T07:25:01.222Z,1019.53
2018-02-21T07:26:01.173Z,1019.61
2018-02-21T07:27:01.156Z,1019.54
2018-02-21T07:28:01.109Z,1019.58
2018-02-21T07:29:01.074Z,1019.57
2018-02-21T07:30:01.049Z,1019.55
2018-02-21T07:31:01.008Z,1019.54
2018-02-21T07:32:00.987Z,1019.58
2018-02-21T07:33:00.946Z,1019.58
2018-02-21T07:34:00.912Z,1019.56
2018-02-21T07:35:00.872Z,1019.60
2018-02-21T07:36:00.835Z,1019.60
2018-02-21T07:37:00.810Z,1019.57
2018-02-21T07:38:00.767Z,1019.62
2018-02-21T07:39:00.742Z,1019.61
2018-02-21T07:40:00.700Z,1019.61
2018-02-21T07:41:00.666Z,1019.62
2018-02-21T07:42:00.640Z,1019.62
2018-02-21T07:43:00.609Z,1019.59
2018-02-21T07:44:00.571Z,1019.60
2018-02-21T07:45:00.539Z,1019.57
2018-02-21T07:46:00.529Z,1019.55
2018-02-21T07:47:00.472Z,1019.54
2018-02-21T07:48:00.443Z,1019.55
2018-02-21T07:49:00.467Z,1019.54
2018-02-21T07:50:00.410Z,1019.56
2018-02-21T07:51:00.340Z,1019.56
2018-02-21T07:52:00.310Z,1019.55
2018-02-21T07:53:00.280Z,1019.53
2018-02-21T07:54:00.269Z,1019.53
2018-02-21T07:55:00.226Z,1019.53
2018-02-21T07:56:00.194Z,1019.54
2018-02-21T07:57:00.144Z,1019.51
2018-02-21T07:58:00.105Z,1019.53
2018-02-21T07:59:00.076Z,1019.52
2018-02-21T08:00:00.040Z,1019.53
2018-02-21T08:01:00.034Z,1019.55
2018-02-21T08:01:59.975Z,1019.54
2018-02-21T08:02:59.997Z,1019.56
2018-02-21T08:03:59.919Z,1019.58
2018-02-21T08:04:59.912Z,1019.61
2018-02-21T08:05:59.851Z,1019.62
2018-02-21T08:06:59.802Z,1019.66
2018-02-21T08:07:59.778Z,1019.69
2018-02-21T08:08:59.759Z,1019.71
2018-02-21T08:09:59.725Z,1019.74
2018-02-21T08:10:59.684Z,1019.74
2018-02-21T08:12:00.123Z,1019.76
2018-02-21T08:12:59.614Z,1019.79
2018-02-21T08:13:59.590Z,1019.80
2018-02-21T08:14:59.538Z,1019.83
2018-02-21T08:15:59.583Z,1019.85
2018-02-21T08:16:59.480Z,1019.89
2018-02-21T08:17:59.445Z,1019.89
2018-02-21T08:18:59.421Z,1019.91
2018-02-21T08:19:59.392Z,1019.90
2018-02-21T08:20:59.344Z,1019.93
2018-02-21T08:21:59.315Z,1019.92
2018-02-21T08:22:59.285Z,1019.93
2018-02-21T08:23:59.243Z,1019.93
2018-02-21T08:24:59.255Z,1019.97
2018-02-21T08:25:59.226Z,1019.97
2018-02-21T08:26:59.160Z,1019.97
2018-02-21T08:27:59.134Z,1019.98
2018-02-21T08:28:59.107Z,1020.03
2018-02-21T08:29:59.047Z,1020.00
2018-02-21T08:30:59.040Z,1020.00
2018-02-21T08:31:59.005Z,1020.06
2018-02-21T08:32:58.982Z,1020.02
2018-02-21T08:33:59.017Z,1020.02
2018-02-21T08:34:58.997Z,1020.04
2018-02-21T08:35:58.854Z,1020.04
2018-02-21T08:36:58.869Z,1019.96
2018-02-21T08:37:58.879Z,1019.97
2018-02-21T08:38:58.763Z,1019.95
2018-02-21T08:39:58.815Z,1019.93
2018-02-21T08:40:58.764Z,1019.94
2018-02-21T08:41:58.716Z,1019.90
2018-02-21T08:42:58.688Z,1019.96
2018-02-21T08:43:58.694Z,1019.94
2018-02-21T08:44:58.652Z,1019.88
2018-02-21T08:45:58.602Z,1019.89
2018-02-21T08:46:58.494Z,1019.94
2018-02-21T08:47:58.537Z,1019.89
2018-02-21T08:48:58.530Z,1019.90
2018-02-21T08:49:58.451Z,1019.91
2018-02-21T08:50:58.434Z,1019.91
2018-02-21T08:51:58.382Z,1019.91
2018-02-21T08:52:58.438Z,1019.91
2018-02-21T08:53:58.409Z,1019.88
2018-02-21T08:54:58.381Z,1019.87
2018-02-21T08:55:58.191Z,1019.90
2018-02-21T08:56:58.152Z,1019.89
2018-02-21T08:57:58.130Z,1019.87
2018-02-21T08:58:58.099Z,1019.87
2018-02-21T08:59:58.066Z,1019.91
2018-02-21T09:00:58.026Z,1019.93
2018-02-21T09:01:57.998Z,1019.86
2018-02-21T09:02:57.984Z,1019.91
2018-02-21T09:03:57.934Z,1019.94
2018-02-21T09:04:57.891Z,1019.89
2018-02-21T09:05:57.873Z,1019.87
2018-02-21T09:06:57.848Z,1019.87
2018-02-21T09:07:57.795Z,1019.89
2018-02-21T09:08:57.764Z,1019.90
2018-02-21T09:09:57.739Z,1019.92
2018-02-21T09:10:57.698Z,1019.90
2018-02-21T09:11:57.692Z,1019.87
2018-02-21T09:12:57.636Z,1019.90
2018-02-21T09:13:57.601Z,1019.88
2018-02-21T09:14:57.572Z,1019.91
2018-02-21T09:15:57.546Z,1019.91
2018-02-21T09:16:57.504Z,1019.93
2018-02-21T09:17:57.471Z,1019.94
2018-02-21T09:18:57.449Z,1019.97
2018-02-21T09:19:57.423Z,1019.97
2018-02-21T09:20:57.374Z,1019.98
2018-02-21T09:21:57.339Z,1020.04
2018-02-21T09:22:57.299Z,1019.97
2018-02-21T09:23:57.276Z,1019.99
2018-02-21T09:24:57.256Z,1020.02
2018-02-21T09:25:57.218Z,1020.04
2018-02-21T09:26:57.173Z,1020.03
2018-02-21T09:27:57.141Z,1020.09
2018-02-21T09:28:57.104Z,1020.07
2018-02-21T09:29:57.083Z,1020.07
2018-02-21T09:30:57.049Z,1020.09
2018-02-21T09:31:57.041Z,1020.11
2018-02-21T09:32:56.981Z,1020.10
2018-02-21T09:33:56.949Z,1020.10
2018-02-21T09:34:56.926Z,1020.11
2018-02-21T09:35:56.887Z,1020.13
2018-02-21T09:36:56.885Z,1020.12
2018-02-21T09:37:56.822Z,1020.08
2018-02-21T09:38:56.788Z,1020.10
2018-02-21T09:39:56.787Z,1020.11
2018-02-21T09:40:56.738Z,1020.10
2018-02-21T09:41:56.686Z,1020.09
2018-02-21T09:42:56.662Z,1020.09
2018-02-21T09:43:56.629Z,1020.12
2018-02-21T09:44:56.612Z,1020.09
2018-02-21T09:45:56.562Z,1020.07
2018-02-21T09:46:56.526Z,1020.15
2018-02-21T09:47:56.572Z,1020.18
2018-02-21T09:48:56.476Z,1020.18
2018-02-21T09:49:56.428Z,1020.20
2018-02-21T09:50:56.418Z,1020.24
2018-02-21T09:51:56.371Z,1020.26
2018-02-21T09:52:56.332Z,1020.27
2018-02-21T09:53:56.327Z,1020.24
2018-02-21T09:54:56.340Z,1020.25
2018-02-21T09:55:56.253Z,1020.24
2018-02-21T09:56:56.221Z,1020.28
2018-02-21T09:57:56.178Z,1020.25
2018-02-21T09:58:56.152Z,1020.24
2018-02-21T09:59:56.176Z,1020.21
2018-02-21T10:00:56.117Z,1020.19
2018-02-21T10:01:56.047Z,1020.22
2018-02-21T10:02:56.044Z,1020.24
2018-02-21T10:03:56.000Z,1020.21
2018-02-21T10:04:56.018Z,1020.16
2018-02-21T10:05:55.922Z,1020.15
2018-02-21T10:06:55.896Z,1020.13
2018-02-21T10:07:55.862Z,1020.15
2018-02-21T10:08:55.841Z,1020.13
2018-02-21T10:09:55.812Z,1020.13
2018-02-21T10:10:55.773Z,1020.10
2018-02-21T10:11:55.745Z,1020.14
2018-02-21T10:12:55.704Z,1020.17
2018-02-21T10:13:55.673Z,1020.18
2018-02-21T10:14:55.639Z,1020.20
2018-02-21T10:15:55.601Z,1020.19
2018-02-21T10:16:55.599Z,1020.22
2018-02-21T10:17:55.546Z,1020.25
2018-02-21T10:18:55.520Z,1020.23
2018-02-21T10:19:55.480Z,1020.23
2018-02-21T10:20:55.448Z,1020.25
2018-02-21T10:21:55.429Z,1020.20
2018-02-21T10:22:55.382Z,1020.23
2018-02-21T10:23:55.352Z,1020.28
2018-02-21T10:24:55.318Z,1020.27
2018-02-21T10:25:55.290Z,1020.28
2018-02-21T10:26:55.255Z,1020.27
2018-02-21T10:27:55.232Z,1020.28
2018-02-21T10:28:55.183Z,1020.26
2018-02-21T10:29:55.171Z,1020.27
2018-02-21T10:30:55.124Z,1020.29
2018-02-21T10:31:55.100Z,1020.29
2018-02-21T10:32:55.068Z,1020.29
2018-02-21T10:33:55.035Z,1020.29
2018-02-21T10:34:54.996Z,1020.27
2018-02-21T10:35:54.989Z,1020.26
2018-02-21T10:36:54.941Z,1020.22
2018-02-21T10:37:54.935Z,1020.23
2018-02-21T10:38:54.993Z,1020.18
2018-02-21T10:39:54.862Z,1020.22
2018-02-21T10:40:54.806Z,1020.23
2018-02-21T10:41:54.776Z,1020.26
2018-02-21T10:42:54.745Z,1020.25
2018-02-21T10:43:54.738Z,1020.23
2018-02-21T10:44:54.688Z,1020.22
2018-02-21T10:45:54.700Z,1020.20
2018-02-21T10:46:54.625Z,1020.22
2018-02-21T10:47:54.600Z,1020.27
2018-02-21T10:48:54.561Z,1020.23
2018-02-21T10:49:54.527Z,1020.17
2018-02-21T10:50:54.562Z,1020.17
2018-02-21T10:51:54.602Z,1020.13
2018-02-21T10:52:54.543Z,1020.13
2018-02-21T10:53:54.571Z,1020.13
2018-02-21T10:54:54.496Z,1020.17
2018-02-21T10:55:54.416Z,1020.13
2018-02-21T10:56:54.424Z,1020.07
2018-02-21T10:57:54.330Z,1020.12
2018-02-21T10:58:54.342Z,1020.07
2018-02-21T10:59:54.266Z,1020.07
2018-02-21T11:00:54.189Z,1020.03
2018-02-21T11:01:54.213Z,1020.00
2018-02-21T11:02:54.125Z,1020.06
2018-02-21T11:03:54.091Z,1020.01
2018-02-21T11:04:54.195Z,1019.97
2018-02-21T11:05:54.047Z,1019.95
2018-02-21T11:06:54.135Z,1019.96
2018-02-21T11:07:53.978Z,1019.94
2018-02-21T11:08:53.936Z,1019.96
2018-02-21T11:09:54.009Z,1019.92
2018-02-21T11:10:53.871Z,1019.92
2018-02-21T11:11:53.847Z,1019.87
2018-02-21T11:12:53.821Z,1019.91
2018-02-21T11:13:53.839Z,1019.89
2018-02-21T11:14:53.854Z,1019.90
2018-02-21T11:15:53.858Z,1019.91
2018-02-21T11:16:53.802Z,1019.90
2018-02-21T11:17:53.765Z,1019.90
2018-02-21T11:18:53.683Z,1019.88
2018-02-21T11:19:53.607Z,1019.89
2018-02-21T11:20:53.567Z,1019.95
2018-02-21T11:21:53.540Z,1019.92
2018-02-21T11:22:53.501Z,1019.95
2018-02-21T11:23:53.470Z,1019.91
2018-02-21T11:24:53.492Z,1019.91
2018-02-21T11:25:53.408Z,1019.90
2018-02-21T11:26:53.378Z,1019.88
2018-02-21T11:27:53.340Z,1019.92
2018-02-21T11:28:53.316Z,1019.90
2018-02-21T11:29:53.289Z,1019.92
2018-02-21T11:30:53.277Z,1019.91
2018-02-21T11:31:53.230Z,1019.90
2018-02-21T11:32:53.195Z,1019.88
2018-02-21T11:33:53.173Z,1019.92
2018-02-21T11:34:53.152Z,1019.87
2018-02-21T11:35:53.122Z,1019.88
2018-02-21T11:36:53.069Z,1019.85
2018-02-21T11:37:53.089Z,1019.86
2018-02-21T11:38:53.014Z,1019.90
2018-02-21T11:39:52.970Z,1019.87
2018-02-21T11:40:52.945Z,1019.88
2018-02-21T11:41:52.926Z,1019.85
2018-02-21T11:42:52.902Z,1019.88
2018-02-21T11:43:52.896Z,1019.88
2018-02-21T11:44:52.820Z,1019.93
2018-02-21T11:45:52.804Z,1019.89
2018-02-21T11:46:52.778Z,1019.88
2018-02-21T11:47:52.742Z,1019.92
2018-02-21T11:48:52.703Z,1019.89
2018-02-21T11:49:52.670Z,1019.87
2018-02-21T11:50:52.658Z,1019.88
2018-02-21T11:51:52.620Z,1019.85
2018-02-21T11:52:52.591Z,1019.88
2018-02-21T11:53:52.560Z,1019.92
2018-02-21T11:54:52.515Z,1019.87
2018-02-21T11:55:52.489Z,1019.84
2018-02-21T11:56:52.482Z,1019.81
2018-02-21T11:57:52.430Z,1019.81
2018-02-21T11:58:52.401Z,1019.77
2018-02-21T11:59:52.378Z,1019.80
2018-02-21T12:00:52.340Z,1019.77
2018-02-21T12:01:52.304Z,1019.76
2018-02-21T12:02:52.294Z,1019.81
2018-02-21T12:03:52.242Z,1019.80
2018-02-21T12:04:52.228Z,1019.78